메인 페이지
METAR-TAF:

METAR-TAF

공항 :

애빌린, 텍사스, 미국

위도: 32-24-37N, 경도: 099-40-54W, 고도: 545m

현재 날씨관측

예보는 44분 전, 15:52시(UTC)에 발표되었습니다.
남남서4kt
온도 7°C
습도 53%
기압 1035 hPa
시정: 16.1km
맑음

METAR: KABI 201552Z 20004KT 10SM CLR 07/M02 A3057 RMK AO2 SLP356 T00671022

시각: 10:36 (16:36 UTC)

예보

예보는 5 시간 16분 전, 11:20시(UTC)에 발표되었습니다.
예보 대상 시간: 20일 12시부터 21일 12시까지 (UTC)
7kt
시정: 10km
고도 20000ft 상공 구름 많음

TAF: KABI 201120Z 2012/2112 17007KT P6SM BKN200

4,000개 이상의 공항 관측 자료 및 예보 (METAR 및 TAF 보고).

지도상에서 검색 가능한 기상관측소가 노란 점과 빨간 점으로 표시되어 있습니다.

기상관측소 명을 보려면 표시 위로 마우스를 이동하세요.

날씨 관측과 예보를 보려면 클릭하세요.

지도 변경 : 확대하려면 엑스 표시가 있는 녹색 버튼, 축소하려면 빼기 표시가 있는 녹색 버튼, 다음 페이지의 지도를 보려면 녹색 화살표를 클릭하세요.


METAR-TAF: